Flight Number: EUR2036 Duration: 1:20
Departure: Copenhagen Kastrup (EKCH) at 18:20 Distance: 386 Nm
Arrival: Riga Int'l Airport (EVRA) at 19:40 Equipment: B737

Weather Information
Koebenhavn / Kastrup, Denmark (EKCH) 55-37N 012-39E 5M Feb 24, 2018 - 12:50 AM EST / 2018.02.24 0550 UTC
Wind: from the ENE (060 degrees) at 13 MPH (11 KT):0
Visibility: greater than 7 mile(s):0 Temperature: 26 F (-3 C)
Windchill: 14 F (-10 C):1 Dew Point: 19 F (-7 C) Relative Humidity: 73% Pressure (altimeter): 30.56 in. Hg (1035 hPa)
ob: EKCH 240550Z 06011KT CAVOK M03/M07 Q1035 NOSIG cycle: 6
Sunrise: 06:15 Sunset: 16:29 (UTC)

Riga International Airport, Latvia (EVRA) 56-55N 023-58E Feb 24, 2018 - 12:50 AM EST / 2018.02.24 0550 UTC
Wind: from the NNE (030 degrees) at 7 MPH (6 KT):0
Visibility: greater than 7 mile(s):0
Sky conditions: partly cloudy Temperature: 3 F (-16 C)
Windchill: -9 F (-23 C):2 Dew Point: 1 F (-17 C) Relative Humidity: 91% Pressure (altimeter): 30.47 in. Hg (1032 hPa)
ob: EVRA 240550Z 03006KT 9999 SCT040 M16/M17 Q1032 R36/490195 NOSIG cycle: 6
Sunrise: 05:32 Sunset: 15:41 (UTC)

TAF:2018/02/24 06:06 TAF TAF EVRA 240505Z 2406/2506 03007KT 9999 SCT020 TEMPO 2406/2412 BKN010 PROB40 TEMPO 2406/2408 0700 FZFG TEMPO 2500/2506 BKN010

Previous Pireps for this route
Date Aircraft Flight time Fuel used Landing rate On time
2013-01-28B7371.13100650No
2013-01-30B7371.2064500No
2013-01-31B7371.3067090No
2013-02-02B7371.13100650No
2013-03-07B73701.337756-139Yes
2013-07-21B73701.2813801-249No
2013-08-24B73701.3412616-324No
2013-11-15B73702.1011479-427Yes
2013-11-16B73702.2812607-160No
2013-12-21B7371.3067460Yes
2014-02-15B73701.3413282-162Yes
2014-02-17B73701.307866-571Yes
2014-03-22B737168850Yes
2015-03-29B73701.2511980-478Yes
(pireps marked green are flown by you)

Route map